Time;durP1;ratioP1;P1;durP2;ratioP2;P2;SDS_P1;SDS_P2;PMS_P1;PMS_P2;Temp;Humidity;BMP_temperature;BMP_pressure;BME280_temperature;BME280_humidity;BME280_pressure;Samples;Min_cycle;Max_cycle;Signal;HPM_P1;HPM_P2
2021/07/15 00:01:06;;;;;;;16.50;10.60;;;;;;;26.00;63.20;98971.23;1870683;76;22137;-59
2021/07/15 00:03:42;;;;;;;18.02;10.75;;;;;;;25.94;63.38;98968.44;1870603;76;22154;-61
2021/07/15 00:06:16;;;;;;;15.53;10.75;;;;;;;25.91;63.56;98970.41;1870712;76;22112;-60
2021/07/15 00:08:56;;;;;;;19.62;10.20;;;;;;;25.86;63.79;98971.95;1870688;76;22555;-61
2021/07/15 00:11:35;;;;;;;15.75;10.10;;;;;;;25.81;63.94;98961.20;1870677;76;22121;-60
2021/07/15 00:14:12;;;;;;;18.92;10.82;;;;;;;25.77;64.23;98963.13;1870519;76;22702;-60
2021/07/15 00:17:07;;;;;;;16.25;10.82;;;;;;;25.72;64.39;98966.04;1870749;76;22547;-61
2021/07/15 00:19:42;;;;;;;17.73;11.05;;;;;;;25.67;64.65;98962.77;1819539;77;28219;-60
2021/07/15 00:22:18;;;;;;;17.02;11.28;;;;;;;25.68;64.87;98970.23;1873927;76;38372;-60
2021/07/15 00:24:53;;;;;;;15.15;10.78;;;;;;;25.69;64.92;98966.17;1870677;76;22528;-62
2021/07/15 00:27:28;;;;;;;15.18;11.40;;;;;;;25.65;65.05;98963.78;1870747;76;22112;-61
2021/07/15 00:30:06;;;;;;;18.17;10.53;;;;;;;25.61;65.22;98969.67;1870604;76;22109;-61
2021/07/15 00:32:41;;;;;;;16.62;10.70;;;;;;;25.58;65.41;98970.31;1890065;76;22100;-60
2021/07/15 00:35:17;;;;;;;18.48;10.65;;;;;;;25.52;65.58;98965.72;1854707;76;28108;-59
2021/07/15 00:37:55;;;;;;;12.37;9.88;;;;;;;25.53;65.76;98969.21;1870582;76;22160;-60
2021/07/15 00:40:32;;;;;;;17.52;10.70;;;;;;;25.50;65.79;98965.41;1873886;76;28087;-60
2021/07/15 00:43:25;;;;;;;13.58;10.38;;;;;;;25.55;65.84;98963.39;1870629;76;22140;-61
2021/07/15 00:46:00;;;;;;;14.70;10.03;;;;;;;25.53;65.83;98959.97;1889939;76;22135;-60
2021/07/15 00:48:35;;;;;;;17.95;10.63;;;;;;;25.50;65.89;98964.09;1870768;76;22524;-61
2021/07/15 00:51:11;;;;;;;15.43;11.20;;;;;;;25.48;65.93;98964.63;1854612;76;27939;-60
2021/07/15 00:53:46;;;;;;;16.77;11.00;;;;;;;25.50;66.01;98960.97;1889920;76;22199;-60
2021/07/15 00:56:22;;;;;;;15.65;11.28;;;;;;;25.46;66.18;98954.59;1870650;76;22595;-60
2021/07/15 00:58:57;;;;;;;16.87;10.50;;;;;;;25.42;66.22;98953.05;1889966;76;22108;-61
2021/07/15 01:01:32;;;;;;;18.98;11.20;;;;;;;25.39;66.43;98959.78;1889913;76;22148;-59
2021/07/15 01:04:08;;;;;;;15.20;11.10;;;;;;;25.37;66.49;98956.39;1870607;76;22543;-61
2021/07/15 01:06:42;;;;;;;16.12;11.18;;;;;;;25.31;66.52;98955.73;1889963;76;22116;-61
2021/07/15 01:09:18;;;;;;;16.37;11.22;;;;;;;25.31;66.59;98962.81;1870651;76;22145;-60
2021/07/15 01:12:45;;;;;;;20.90;11.80;;;;;;;25.28;66.71;98961.64;1874022;76;28347;-60
2021/07/15 01:15:22;;;;;;;13.98;10.23;;;;;;;25.31;66.71;98962.81;1870522;76;22231;-60
2021/07/15 01:18:11;;;;;;;16.10;10.63;;;;;;;25.29;66.69;98965.55;1869800;76;22161;-60
2021/07/15 01:21:47;;;;;;;16.55;9.78;;;;;;;25.31;66.60;98968.94;1870491;75;22647;-60
2021/07/15 01:24:50;;;;;;;14.28;10.72;;;;;;;25.34;66.66;98968.81;1889935;76;22148;-59
2021/07/15 01:28:07;;;;;;;16.97;10.48;;;;;;;25.33;66.53;98967.56;1889984;76;22554;-61
2021/07/15 01:30:52;;;;;;;20.20;10.10;;;;;;;25.33;66.28;98975.01;1870681;76;22112;-60
2021/07/15 01:33:33;;;;;;;13.45;11.15;;;;;;;25.31;66.24;98966.77;1889945;76;22160;-59
2021/07/15 01:36:13;;;;;;;17.48;10.28;;;;;;;25.30;66.26;98970.36;1870704;76;22129;-60
2021/07/15 01:39:09;;;;;;;13.80;11.48;;;;;;;25.28;66.34;98967.78;1870519;76;22161;-60
2021/07/15 01:41:48;;;;;;;17.40;11.35;;;;;;;25.26;66.41;98969.63;1870570;76;22140;-59
2021/07/15 01:44:30;;;;;;;17.95;10.95;;;;;;;25.25;66.45;98967.94;1870590;76;22566;-60
2021/07/15 01:47:05;;;;;;;15.28;10.80;;;;;;;25.22;66.68;98962.81;1889923;76;22210;-60
2021/07/15 01:49:44;;;;;;;20.08;11.43;;;;;;;25.18;66.68;98965.20;1870766;76;22572;-60
2021/07/15 01:52:45;;;;;;;17.07;11.45;;;;;;;25.17;66.83;98966.61;1889914;76;22136;-60
2021/07/15 01:55:40;;;;;;;16.07;10.85;;;;;;;25.15;66.83;98966.64;1870651;76;22133;-59
2021/07/15 01:58:37;;;;;;;16.67;10.50;;;;;;;25.13;66.99;98971.14;1870655;76;22536;-61
2021/07/15 02:01:12;;;;;;;15.28;10.68;;;;;;;25.12;66.91;98979.53;1870658;76;22176;-61
2021/07/15 02:03:57;;;;;;;16.77;10.10;;;;;;;25.15;66.76;98978.53;1889933;76;22136;-60
2021/07/15 02:06:54;;;;;;;16.55;11.08;;;;;;;25.19;66.56;98987.17;1870722;76;22556;-60
2021/07/15 02:09:50;;;;;;;14.90;10.88;;;;;;;25.19;66.54;98978.81;1889934;76;22547;-61
2021/07/15 02:12:44;;;;;;;16.70;11.05;;;;;;;25.20;66.23;98976.55;1870600;76;22112;-59
2021/07/15 02:15:19;;;;;;;16.42;10.48;;;;;;;25.22;65.96;98974.70;1870665;76;22532;-59
2021/07/15 02:17:57;;;;;;;15.93;11.38;;;;;;;25.24;65.83;98978.13;1854730;76;28083;-59
2021/07/15 02:20:33;;;;;;;15.05;10.65;;;;;;;25.29;65.73;98975.23;1890009;76;22131;-61
2021/07/15 02:23:09;;;;;;;14.43;10.48;;;;;;;25.29;65.68;98974.80;1889979;76;20347;-61
2021/07/15 02:25:53;;;;;;;14.98;10.58;;;;;;;25.30;65.50;98971.20;1870525;76;22552;-60
2021/07/15 02:28:29;;;;;;;13.50;11.05;;;;;;;25.31;65.45;98974.70;1870679;76;22212;-60
2021/07/15 02:31:17;;;;;;;14.55;10.63;;;;;;;25.32;65.46;98977.75;1870741;76;20208;-59
2021/07/15 02:33:58;;;;;;;16.42;11.43;;;;;;;25.32;65.44;98981.71;1870617;76;22185;-59
2021/07/15 02:36:53;;;;;;;12.95;10.93;;;;;;;25.33;65.49;98975.01;1870688;76;22109;-60
2021/07/15 02:39:47;;;;;;;16.65;11.95;;;;;;;25.33;65.47;98977.66;1854672;76;28102;-60
2021/07/15 02:42:22;;;;;;;15.63;11.10;;;;;;;25.38;65.49;98979.23;1889923;76;22144;-60
2021/07/15 02:44:58;;;;;;;14.43;10.65;;;;;;;25.39;65.42;98978.28;1870522;76;22137;-60
2021/07/15 02:47:34;;;;;;;12.80;10.75;;;;;;;25.40;65.39;98987.94;1870715;76;22148;-59
2021/07/15 02:50:13;;;;;;;19.05;11.18;;;;;;;25.42;65.32;98984.77;1870696;76;22521;-60
2021/07/15 02:52:50;;;;;;;14.95;10.80;;;;;;;25.43;65.28;98980.70;1889932;76;22515;-61
2021/07/15 02:55:27;;;;;;;16.65;10.72;;;;;;;25.46;65.25;98980.54;1870678;76;22117;-60
2021/07/15 02:58:30;;;;;;;17.37;10.70;;;;;;;25.49;65.19;98984.81;1870511;76;22129;-60
2021/07/15 03:01:09;;;;;;;14.28;10.90;;;;;;;25.54;65.21;98989.41;1870660;76;22159;-61
2021/07/15 03:04:06;;;;;;;18.52;11.65;;;;;;;25.56;65.21;98987.55;1889959;76;22559;-59
2021/07/15 03:06:44;;;;;;;13.60;11.00;;;;;;;25.59;65.17;98988.71;1870658;76;22213;-59
2021/07/15 03:09:24;;;;;;;17.27;11.03;;;;;;;25.61;65.14;98988.65;1889973;76;22554;-62
2021/07/15 03:12:08;;;;;;;15.05;11.40;;;;;;;25.63;65.05;98988.95;1889982;76;22155;-60
2021/07/15 03:15:03;;;;;;;15.23;10.78;;;;;;;25.69;64.96;98988.64;1870670;76;22563;-61
2021/07/15 03:17:42;;;;;;;17.10;11.63;;;;;;;25.72;64.88;98981.90;1870774;76;22112;-61
2021/07/15 03:20:27;;;;;;;16.23;11.05;;;;;;;25.76;64.82;98986.55;1870658;76;22179;-60
2021/07/15 03:23:08;;;;;;;18.15;10.68;;;;;;;25.79;64.77;98985.06;1889961;76;22167;-60
2021/07/15 03:25:49;;;;;;;19.73;11.88;;;;;;;25.84;64.69;98987.48;1870724;76;22161;-61
2021/07/15 03:28:31;;;;;;;17.80;11.65;;;;;;;25.90;64.61;98992.03;1870544;76;22182;-60
2021/07/15 03:31:28;;;;;;;12.43;11.03;;;;;;;25.97;64.44;98988.11;1870562;76;22113;-61
2021/07/15 03:34:23;;;;;;;17.73;11.08;;;;;;;26.02;64.30;98986.55;1870666;76;22555;-61
2021/07/15 03:36:59;;;;;;;18.62;11.60;;;;;;;26.07;64.18;98991.61;1890057;76;22151;-60
2021/07/15 03:39:35;;;;;;;14.70;11.50;;;;;;;26.11;63.98;98990.05;1854712;76;28381;-61
2021/07/15 03:42:10;;;;;;;18.40;11.73;;;;;;;26.23;63.71;98996.95;1854792;76;28117;-61
2021/07/15 03:44:48;;;;;;;16.02;10.88;;;;;;;26.31;63.60;98996.95;1870496;76;22127;-59
2021/07/15 03:47:23;;;;;;;22.98;11.45;;;;;;;26.37;63.28;98998.41;1889936;76;22144;-61
2021/07/15 03:49:59;;;;;;;15.90;11.55;;;;;;;26.42;63.16;99003.83;1873988;76;38624;-61
2021/07/15 03:52:38;;;;;;;18.57;11.03;;;;;;;26.53;62.92;99003.75;1870450;76;22575;-61
2021/07/15 03:55:16;;;;;;;16.60;11.80;;;;;;;26.59;62.71;99012.23;1889971;76;22123;-60
2021/07/15 03:57:53;;;;;;;15.28;10.70;;;;;;;26.66;62.59;99007.92;1870446;76;22161;-62
2021/07/15 04:00:28;;;;;;;14.68;10.60;;;;;;;26.69;62.35;99011.27;1870670;76;22113;-60
2021/07/15 04:03:05;;;;;;;17.17;11.70;;;;;;;26.74;62.22;99004.38;1854836;76;27939;-61
2021/07/15 04:05:41;;;;;;;15.88;11.05;;;;;;;26.82;62.05;99002.19;1870620;76;22164;-61
2021/07/15 04:08:18;;;;;;;18.30;10.72;;;;;;;26.91;61.74;98996.84;1854999;76;27964;-61
2021/07/15 04:10:59;;;;;;;13.10;10.95;;;;;;;27.02;61.48;98999.73;1870545;76;22132;-61
2021/07/15 04:13:35;;;;;;;17.27;11.40;;;;;;;27.06;61.26;99008.75;1870640;76;22536;-61
2021/07/15 04:16:46;;;;;;;13.18;10.58;;;;;;;27.11;61.12;99003.20;1870532;76;22573;-61
2021/07/15 04:19:22;;;;;;;12.70;10.75;;;;;;;27.20;61.07;99000.55;1870540;76;22582;-60
2021/07/15 04:21:57;;;;;;;16.23;11.10;;;;;;;27.29;60.85;98994.70;1870580;76;22592;-59
2021/07/15 04:24:34;;;;;;;18.60;11.35;;;;;;;27.37;60.68;98999.09;1870630;76;22140;-60
2021/07/15 04:27:10;;;;;;;14.98;10.40;;;;;;;27.45;60.47;98987.59;1850821;77;22155;-62
2021/07/15 04:30:09;;;;;;;18.55;11.50;;;;;;;27.56;60.15;98994.07;1889889;76;22175;-62
2021/07/15 04:33:06;;;;;;;16.52;10.15;;;;;;;27.65;59.94;98990.86;1870650;76;22133;-61
2021/07/15 04:35:59;;;;;;;14.20;9.75;;;;;;;27.76;59.42;98992.88;1870659;76;22161;-60
2021/07/15 04:38:34;;;;;;;19.25;10.40;;;;;;;27.86;59.12;98991.41;1870659;76;22113;-60
2021/07/15 04:41:11;;;;;;;17.17;10.03;;;;;;;27.95;58.67;98986.90;1889923;76;22163;-61
2021/07/15 04:44:07;;;;;;;17.52;10.32;;;;;;;28.06;58.25;98980.48;1854703;76;38375;-62
2021/07/15 04:47:05;;;;;;;16.12;10.70;;;;;;;28.23;57.54;98983.42;1873883;76;27930;-63
2021/07/15 04:49:41;;;;;;;22.35;10.15;;;;;;;28.36;57.35;98981.71;1889967;76;22546;-62
2021/07/15 04:52:18;;;;;;;14.28;10.20;;;;;;;28.46;57.11;98981.18;1854720;76;27918;-62
2021/07/15 04:54:52;;;;;;;14.43;10.03;;;;;;;28.59;56.78;98979.45;1873914;76;38210;-61
2021/07/15 04:57:29;;;;;;;14.40;9.68;;;;;;;28.72;56.21;98984.36;1870585;76;22145;-62
2021/07/15 05:00:11;;;;;;;13.38;9.40;;;;;;;28.77;56.17;98983.59;1870687;76;22186;-61
2021/07/15 05:03:00;;;;;;;20.97;9.73;;;;;;;28.81;56.19;98984.75;1870655;76;22220;-61
2021/07/15 05:05:40;;;;;;;12.55;9.00;;;;;;;28.89;55.97;98987.28;1869724;76;22624;-60
2021/07/15 05:08:37;;;;;;;12.85;9.05;;;;;;;29.00;55.76;98984.81;1889924;76;22566;-62
2021/07/15 05:11:18;;;;;;;19.00;10.10;;;;;;;29.14;55.33;98987.92;1869818;76;22161;-62
2021/07/15 05:14:12;;;;;;;13.48;9.03;;;;;;;29.27;55.12;98985.80;1870600;76;22141;-61
2021/07/15 05:17:09;;;;;;;16.67;9.28;;;;;;;29.47;54.97;98989.80;1870467;76;22189;-61
2021/07/15 05:20:08;;;;;;;19.90;9.75;;;;;;;29.61;54.36;98997.69;1870464;76;22189;-61
2021/07/15 05:22:43;;;;;;;13.38;9.60;;;;;;;29.75;54.14;99000.80;1870679;76;22105;-61
2021/07/15 05:25:37;;;;;;;12.65;8.78;;;;;;;29.89;53.79;99001.19;1870615;76;22104;-62
2021/07/15 05:28:12;;;;;;;14.95;10.08;;;;;;;30.03;53.57;99006.42;1854713;76;27916;-60
2021/07/15 05:30:47;;;;;;;16.05;9.40;;;;;;;30.31;52.89;98999.23;1889948;76;22530;-61
2021/07/15 05:33:22;;;;;;;11.88;8.65;;;;;;;30.48;52.16;99001.53;1870679;76;22384;-62
2021/07/15 05:36:16;;;;;;;13.28;8.35;;;;;;;30.58;51.62;98997.74;1870631;76;22706;-61
2021/07/15 05:38:51;;;;;;;12.03;9.23;;;;;;;30.68;51.34;99001.45;1873959;76;27888;-62
2021/07/15 05:41:26;;;;;;;13.55;9.28;;;;;;;30.86;50.86;98994.86;1870592;76;22082;-62
2021/07/15 05:44:02;;;;;;;16.07;8.98;;;;;;;31.06;50.79;99004.05;1873856;76;27933;-60
2021/07/15 05:46:37;;;;;;;12.95;8.73;;;;;;;31.34;50.35;99008.19;1889918;76;22496;-61
2021/07/15 05:49:12;;;;;;;12.05;8.53;;;;;;;31.49;50.22;99008.06;1835160;77;22132;-61
2021/07/15 05:51:48;;;;;;;19.17;8.90;;;;;;;31.72;49.27;99000.50;1874001;76;28351;-61
2021/07/15 05:54:25;;;;;;;12.85;7.83;;;;;;;32.59;47.37;99003.63;1889932;76;22239;-61
2021/07/15 05:57:00;;;;;;;8.98;7.28;;;;;;;33.76;44.65;99007.48;1889949;76;22131;-61
2021/07/15 05:59:35;;;;;;;10.30;7.37;;;;;;;34.74;42.27;99010.27;1870764;76;22066;-59
2021/07/15 06:02:12;;;;;;;11.75;7.47;;;;;;;35.59;40.48;99011.59;1874107;76;27878;-62
2021/07/15 06:04:47;;;;;;;10.88;6.97;;;;;;;36.38;38.58;99011.33;1870673;76;22144;-61
2021/07/15 06:07:21;;;;;;;13.30;7.15;;;;;;;37.05;37.45;99026.03;1870644;76;22075;-61
2021/07/15 06:10:15;;;;;;;10.95;6.25;;;;;;;38.10;35.87;99032.09;1890007;76;22053;-60
2021/07/15 06:12:50;;;;;;;8.88;6.90;;;;;;;39.20;34.50;99022.88;1889895;76;22086;-60
2021/07/15 06:15:24;;;;;;;12.23;6.10;;;;;;;40.19;32.81;99024.66;1870673;76;22141;-62
2021/07/15 06:18:00;;;;;;;10.80;5.90;;;;;;;40.91;31.00;99034.62;1854558;76;28372;-61
2021/07/15 06:20:36;;;;;;;11.60;5.67;;;;;;;41.40;30.27;99033.03;1889915;76;22121;-61
2021/07/15 06:23:17;;;;;;;11.25;4.70;;;;;;;41.81;29.07;99042.23;1889977;76;22528;-60
2021/07/15 06:25:52;;;;;;;9.70;5.53;;;;;;;41.95;28.49;99045.50;1870612;76;22167;-61
2021/07/15 06:28:27;;;;;;;9.85;5.00;;;;;;;41.91;28.61;99041.95;1870674;76;22152;-62
2021/07/15 06:31:04;;;;;;;10.40;5.30;;;;;;;42.02;28.31;99043.75;1890026;76;22087;-62
2021/07/15 06:33:39;;;;;;;16.07;5.28;;;;;;;42.15;28.29;99042.28;1873950;76;27942;-61
2021/07/15 06:36:13;;;;;;;9.10;4.90;;;;;;;42.66;27.29;99041.07;1889928;76;22089;-59
2021/07/15 06:38:49;;;;;;;10.15;4.50;;;;;;;42.89;26.83;99035.55;1873906;76;27943;-63
2021/07/15 06:41:25;;;;;;;10.55;5.17;;;;;;;42.96;26.52;99042.44;1854736;76;28346;-62
2021/07/15 06:44:00;;;;;;;12.00;5.05;;;;;;;43.13;26.34;99045.25;1854877;76;28490;-63
2021/07/15 06:46:38;;;;;;;11.97;4.30;;;;;;;43.66;26.22;99044.48;1870667;76;22462;-61
2021/07/15 06:49:31;;;;;;;12.00;4.30;;;;;;;44.69;24.92;99042.69;1870567;76;22090;-62
2021/07/15 06:52:12;;;;;;;8.90;4.50;;;;;;;45.43;24.04;99043.30;1889898;76;22082;-62
2021/07/15 06:54:50;;;;;;;7.58;4.50;;;;;;;45.97;23.43;99053.25;1870699;76;22055;-62
2021/07/15 06:57:24;;;;;;;7.12;4.22;;;;;;;46.09;22.99;99052.11;1870857;76;22489;-62
2021/07/15 06:59:59;;;;;;;9.33;4.47;;;;;;;45.79;23.03;99050.30;1873915;76;27902;-63
2021/07/15 07:02:53;;;;;;;9.30;4.22;;;;;;;45.68;22.95;99040.33;1870496;75;22181;-62
2021/07/15 07:05:29;;;;;;;6.20;4.15;;;;;;;45.58;22.97;99052.70;1889961;76;22563;-62
2021/07/15 07:08:07;;;;;;;9.65;4.22;;;;;;;45.52;22.98;99049.38;1870458;76;22078;-62
2021/07/15 07:10:42;;;;;;;8.05;4.05;;;;;;;45.47;22.88;99050.87;1857046;76;22152;-62
2021/07/15 07:13:17;;;;;;;10.03;4.40;;;;;;;45.36;23.27;99047.37;1854896;76;27912;-62
2021/07/15 07:16:10;;;;;;;8.43;3.70;;;;;;;45.65;22.77;99052.19;1870633;76;22047;-62
2021/07/15 07:18:51;;;;;;;5.95;3.85;;;;;;;45.94;22.63;99056.41;1869708;76;22553;-60
2021/07/15 07:21:26;;;;;;;5.53;3.70;;;;;;;46.43;22.04;99054.28;1870744;76;22083;-62
2021/07/15 07:24:01;;;;;;;8.75;3.70;;;;;;;46.88;21.66;99066.14;1870610;76;22496;-62
2021/07/15 07:26:35;;;;;;;7.42;3.67;;;;;;;47.45;21.09;99067.69;1870173;76;22149;-62
2021/07/15 07:29:11;;;;;;;11.25;3.67;;;;;;;47.62;20.34;99063.36;1870432;76;22102;-64
2021/07/15 07:31:47;;;;;;;8.38;3.80;;;;;;;47.24;20.50;99062.01;1854706;76;27918;-63
2021/07/15 07:34:22;;;;;;;7.00;3.52;;;;;;;46.88;20.56;99061.21;1889936;76;22053;-61
2021/07/15 07:36:56;;;;;;;7.00;3.30;;;;;;;46.70;20.70;99060.02;1889926;76;22058;-62
2021/07/15 07:39:52;;;;;;;8.10;3.83;;;;;;;46.47;20.72;99063.73;1889906;76;22057;-62
2021/07/15 07:42:27;;;;;;;10.03;3.60;;;;;;;46.20;20.85;99054.71;1889901;76;22082;-63
2021/07/15 07:45:21;;;;;;;5.37;3.80;;;;;;;46.02;21.29;99054.83;1870545;76;22098;-63
2021/07/15 07:47:55;;;;;;;8.63;3.80;;;;;;;46.02;21.48;99060.81;1870630;76;22082;-62
2021/07/15 07:50:31;;;;;;;8.60;4.03;;;;;;;46.30;21.26;99062.77;1870605;76;22090;-63
2021/07/15 07:53:06;;;;;;;8.98;4.25;;;;;;;46.88;20.95;99068.88;1854830;76;28452;-63
2021/07/15 07:55:43;;;;;;;6.35;3.92;;;;;;;47.62;20.22;99072.11;1870668;76;22085;-62
2021/07/15 07:58:15;;;;;;;5.78;3.85;;;;;;;47.82;19.85;99076.09;1870795;76;22090;-62
2021/07/15 08:00:56;;;;;;;9.28;3.77;;;;;;;47.87;19.83;99074.90;1850778;77;22134;-62
2021/07/15 08:03:31;;;;;;;6.75;3.33;;;;;;;48.41;18.45;99078.02;1889889;76;22178;-62
2021/07/15 08:06:06;;;;;;;9.60;4.62;;;;;;;48.45;19.00;99079.25;1854859;76;27908;-62
2021/07/15 08:08:41;;;;;;;7.50;3.75;;;;;;;48.67;18.98;99077.73;1854932;76;28306;-61
2021/07/15 08:11:16;;;;;;;8.53;4.10;;;;;;;48.53;18.92;99073.46;1870674;76;22184;-62
2021/07/15 08:13:51;;;;;;;8.55;4.20;;;;;;;48.03;19.04;99067.48;1870644;76;22121;-62
2021/07/15 08:16:27;;;;;;;8.53;3.83;;;;;;;47.81;19.21;99070.27;1870595;76;22127;-62
2021/07/15 08:19:02;;;;;;;6.75;4.25;;;;;;;47.70;19.27;99075.10;1854834;76;34238;-61
2021/07/15 08:21:38;;;;;;;8.83;3.70;;;;;;;47.51;19.15;99070.92;1870548;76;20093;-60
2021/07/15 08:24:12;;;;;;;6.20;3.70;;;;;;;47.60;19.30;99066.84;1870675;76;22080;-62
2021/07/15 08:26:47;;;;;;;8.03;3.80;;;;;;;47.33;19.17;99063.97;1870681;76;22082;-61
2021/07/15 08:29:21;;;;;;;6.12;3.83;;;;;;;47.03;19.80;99056.31;1870664;76;22082;-62
2021/07/15 08:31:56;;;;;;;9.40;4.20;;;;;;;46.59;20.21;99056.56;1889916;76;22113;-61
2021/07/15 08:34:51;;;;;;;6.08;3.92;;;;;;;46.62;19.67;99058.86;1870569;76;22473;-61
2021/07/15 08:37:25;;;;;;;8.03;4.47;;;;;;;46.81;19.31;99059.03;1889903;76;22492;-63
2021/07/15 08:40:04;;;;;;;8.78;4.65;;;;;;;46.89;19.17;99053.31;1854707;76;28341;-62
2021/07/15 08:42:41;;;;;;;7.65;4.35;;;;;;;47.28;19.18;99060.52;1870647;76;22136;-61
2021/07/15 08:45:14;;;;;;;8.90;3.87;;;;;;;47.43;18.61;99054.76;1855183;76;27951;-61
2021/07/15 08:47:51;;;;;;;8.55;4.08;;;;;;;47.09;18.96;99056.83;1870689;76;22055;-62
2021/07/15 08:50:45;;;;;;;9.83;4.60;;;;;;;46.93;19.49;99057.30;1854863;76;27901;-62
2021/07/15 08:53:22;;;;;;;8.13;4.03;;;;;;;47.43;19.44;99058.86;1870695;76;22058;-61
2021/07/15 08:58:52;;;;;;;7.60;4.12;;;;;;;47.69;19.05;99058.39;1889976;76;22117;-62
2021/07/15 09:01:31;;;;;;;9.28;4.20;;;;;;;47.31;19.40;99049.14;1870649;76;22465;-62
2021/07/15 09:04:04;;;;;;;9.40;4.53;;;;;;;46.90;19.29;99044.92;1889956;76;22058;-62
2021/07/15 09:06:43;;;;;;;8.68;3.62;;;;;;;46.29;19.87;99042.00;1870667;76;22477;-62
2021/07/15 09:09:38;;;;;;;8.05;4.33;;;;;;;44.16;21.77;99031.75;1870550;76;22082;-62
2021/07/15 09:12:16;;;;;;;8.43;4.30;;;;;;;42.38;23.73;99024.09;1870479;76;22148;-62
2021/07/15 09:14:54;;;;;;;10.03;4.50;;;;;;;42.15;24.12;99007.86;1889923;76;22586;-62
2021/07/15 09:17:35;;;;;;;8.78;4.20;;;;;;;41.36;24.75;99010.86;1870625;76;22050;-61
2021/07/15 09:20:29;;;;;;;13.40;4.83;;;;;;;40.73;25.88;98995.11;1870600;76;22619;-62
2021/07/15 09:23:29;;;;;;;7.58;4.15;;;;;;;40.71;26.29;98993.12;1870544;76;22062;-62
2021/07/15 09:26:27;;;;;;;6.83;4.30;;;;;;;40.22;26.54;98995.94;1889922;76;22096;-61
2021/07/15 09:29:16;;;;;;;10.03;4.90;;;;;;;40.22;27.19;98987.83;1870647;76;22074;-62
2021/07/15 09:32:00;;;;;;;7.45;4.50;;;;;;;40.13;26.94;98994.26;1870466;76;22082;-60
2021/07/15 09:34:37;;;;;;;7.33;5.00;;;;;;;39.95;27.52;98990.41;1835082;77;22263;-60
2021/07/15 09:37:18;;;;;;;7.67;5.15;;;;;;;39.60;27.85;98988.88;1889886;76;22188;-61
2021/07/15 09:40:13;;;;;;;9.20;5.28;;;;;;;39.37;28.50;98986.84;1870588;76;22124;-61
2021/07/15 09:43:39;;;;;;;10.37;5.43;;;;;;;38.95;28.98;98976.09;1854906;76;28331;-62
2021/07/15 09:46:19;;;;;;;8.70;5.37;;;;;;;38.65;29.16;98978.34;1889904;76;22151;-63
2021/07/15 09:49:08;;;;;;;9.33;5.22;;;;;;;38.19;29.51;98971.86;1864169;76;22226;-61
2021/07/15 09:51:45;;;;;;;9.53;5.72;;;;;;;37.86;29.70;98967.21;1870644;76;22490;-63
2021/07/15 09:54:23;;;;;;;12.00;6.05;;;;;;;37.66;30.17;98963.39;1870624;76;22099;-61
2021/07/15 09:56:58;;;;;;;7.05;5.30;;;;;;;37.58;30.48;98967.37;1870664;76;22087;-62
2021/07/15 09:59:56;;;;;;;9.13;5.75;;;;;;;37.41;31.60;98964.16;1854798;76;28341;-62
2021/07/15 10:02:32;;;;;;;11.00;5.20;;;;;;;37.34;31.30;98961.22;1870633;76;22078;-62
2021/07/15 10:05:12;;;;;;;11.55;5.70;;;;;;;37.21;30.62;98959.42;1870425;76;22119;-63
2021/07/15 10:08:09;;;;;;;9.90;6.35;;;;;;;36.71;31.44;98953.50;1869759;76;22082;-61
2021/07/15 10:10:43;;;;;;;8.45;5.47;;;;;;;36.21;33.04;98942.25;1870633;76;22054;-63
2021/07/15 10:13:22;;;;;;;7.45;5.85;;;;;;;36.05;33.40;98941.00;1870750;76;22066;-64
2021/07/15 10:16:01;;;;;;;12.18;6.35;;;;;;;35.97;33.40;98942.70;1870574;76;22245;-63
2021/07/15 10:18:44;;;;;;;8.90;5.80;;;;;;;35.95;33.80;98942.88;1870568;76;22079;-65
2021/07/15 10:21:27;;;;;;;8.10;5.70;;;;;;;35.96;33.19;98937.84;1870567;76;22470;-62
2021/07/15 10:24:22;;;;;;;10.03;6.45;;;;;;;35.75;33.04;98943.88;1889944;76;22207;-63
2021/07/15 10:27:16;;;;;;;13.15;6.42;;;;;;;35.59;33.19;98945.31;1870635;76;22102;-62
2021/07/15 10:29:53;;;;;;;9.05;5.92;;;;;;;35.72;33.82;98935.62;1873970;76;27933;-64
2021/07/15 10:32:31;;;;;;;9.25;6.08;;;;;;;35.79;33.86;98941.27;1870536;76;22493;-65
2021/07/15 10:35:31;;;;;;;12.10;5.72;;;;;;;35.78;33.50;98944.45;1869839;76;22070;-65
2021/07/15 10:38:06;;;;;;;12.37;5.95;;;;;;;35.81;33.62;98944.66;1889938;76;22093;-65
2021/07/15 10:40:41;;;;;;;12.98;6.00;;;;;;;35.83;33.29;98927.91;1870663;76;22078;-64
2021/07/15 10:43:16;;;;;;;10.35;5.92;;;;;;;35.73;33.96;98921.22;1889942;76;22127;-64
2021/07/15 10:45:57;;;;;;;10.10;6.62;;;;;;;35.72;33.55;98911.45;1870498;76;22083;-62
2021/07/15 10:48:34;;;;;;;11.50;6.62;;;;;;;35.54;33.56;98934.13;1889889;76;22058;-64
2021/07/15 10:51:09;;;;;;;11.95;6.53;;;;;;;35.49;33.57;98929.69;1870607;76;22055;-64
2021/07/15 10:53:44;;;;;;;8.75;6.35;;;;;;;35.43;33.83;98928.92;1870631;76;22141;-63
2021/07/15 10:56:20;;;;;;;11.83;6.28;;;;;;;35.47;33.96;98931.69;1873847;76;28089;-62
2021/07/15 10:58:57;;;;;;;9.08;6.08;;;;;;;35.59;33.95;98927.87;1870568;76;22066;-63
2021/07/15 11:01:52;;;;;;;7.37;6.00;;;;;;;35.53;34.03;98925.73;1870542;76;22066;-64
2021/07/15 11:04:37;;;;;;;9.58;6.62;;;;;;;35.64;33.65;98926.09;1873939;76;28078;-63
2021/07/15 11:07:25;;;;;;;10.72;6.47;;;;;;;35.76;33.43;98920.92;1870127;76;22707;-63
2021/07/15 11:13:05;;;;;;;9.60;6.03;;;;;;;35.92;32.97;98907.38;1870577;76;22523;-63
2021/07/15 11:15:55;;;;;;;10.15;6.10;;;;;;;35.59;32.46;98917.13;1870482;76;22046;-64
2021/07/15 11:18:47;;;;;;;11.22;6.20;;;;;;;35.18;33.46;98907.03;1870633;76;22248;-63
2021/07/15 11:21:30;;;;;;;8.18;5.53;;;;;;;35.35;34.02;98907.33;1889917;76;22240;-64
2021/07/15 11:24:10;;;;;;;9.98;5.37;;;;;;;35.57;33.35;98904.34;1889934;76;22200;-63
2021/07/15 11:26:47;;;;;;;8.63;5.70;;;;;;;35.73;33.09;98890.84;1870475;76;22083;-63
2021/07/15 11:29:44;;;;;;;12.53;5.85;;;;;;;35.75;32.72;98895.55;1874055;76;27911;-63
2021/07/15 11:32:28;;;;;;;9.13;5.92;;;;;;;35.83;32.80;98898.38;1870439;76;22090;-63
2021/07/15 11:35:22;;;;;;;12.53;5.92;;;;;;;35.92;32.71;98889.42;1889913;76;22207;-62
2021/07/15 11:38:11;;;;;;;10.08;6.20;;;;;;;35.85;32.43;98889.17;1889922;76;22537;-64
2021/07/15 11:40:47;;;;;;;9.75;5.30;;;;;;;35.69;32.41;98883.55;1870650;76;22217;-63
2021/07/15 11:43:56;;;;;;;8.83;5.78;;;;;;;35.52;32.72;98879.77;1870636;76;22501;-64
2021/07/15 11:46:49;;;;;;;8.00;5.87;;;;;;;35.52;32.96;98886.48;1889950;76;22472;-64
2021/07/15 11:49:43;;;;;;;7.05;5.72;;;;;;;35.67;32.57;98886.03;1889938;76;22053;-64
2021/07/15 11:52:19;;;;;;;11.63;5.47;;;;;;;35.79;32.16;98883.53;1854726;76;27965;-63
2021/07/15 11:54:54;;;;;;;8.73;5.22;;;;;;;35.84;32.14;98871.35;1870606;76;22139;-63
2021/07/15 11:57:30;;;;;;;8.73;5.75;;;;;;;35.67;31.77;98873.95;1870643;76;22112;-65
2021/07/15 12:00:10;;;;;;;11.10;5.75;;;;;;;35.34;32.72;98877.44;1873908;76;28506;-64
2021/07/15 12:02:47;;;;;;;14.58;6.08;;;;;;;35.41;32.79;98871.86;1890060;76;22085;-63
2021/07/15 12:05:41;;;;;;;12.35;5.58;;;;;;;35.47;32.01;98866.41;1870616;76;22485;-63
2021/07/15 12:08:22;;;;;;;8.80;5.85;;;;;;;35.37;32.43;98863.77;1889868;76;22659;-65
2021/07/15 12:11:22;;;;;;;11.90;6.42;;;;;;;35.35;32.33;98861.20;1870756;76;22055;-62
2021/07/15 12:14:00;;;;;;;7.95;5.40;;;;;;;35.35;31.77;98863.89;1890015;76;22259;-63
2021/07/15 12:16:41;;;;;;;7.47;5.67;;;;;;;35.19;32.39;98865.83;1870693;76;22091;-62
2021/07/15 12:19:16;;;;;;;10.00;5.25;;;;;;;35.29;32.25;98862.27;1870532;76;22050;-63
2021/07/15 12:21:57;;;;;;;10.05;5.35;;;;;;;35.37;32.03;98857.05;1870642;76;22283;-63
2021/07/15 12:24:31;;;;;;;9.30;5.78;;;;;;;35.38;31.79;98865.44;1870607;76;22505;-63
2021/07/15 12:27:10;;;;;;;8.18;5.67;;;;;;;35.44;31.75;98871.56;1870464;76;22054;-62
2021/07/15 12:29:59;;;;;;;8.45;5.53;;;;;;;35.52;31.49;98856.95;1870544;76;22497;-63
2021/07/15 12:32:40;;;;;;;12.47;5.33;;;;;;;35.57;31.72;98868.56;1870609;76;22054;-64
2021/07/15 12:35:15;;;;;;;7.92;5.70;;;;;;;35.47;31.33;98855.66;1889969;76;22227;-63
2021/07/15 12:37:50;;;;;;;11.22;5.55;;;;;;;35.05;32.21;98852.80;1890053;76;22215;-65